Belmore, Ohio
Current Conditions -  °F | °C
As of 5:53 AM on Wednesday 22 Oct 2014 (Local Time) from KFDY Reporting Station
Overcast Overcast  
Wind Chill: 40°   Ceiling: 1600
Heat Index: 45°   Visibility: 10mi
Dew Point: 38°   Wind: 9mph
Humidity: 76%   Direction: 340°NNW
Pressure: 30.23"   Gusts: NA
Location:  41.15°N, 83.94°W
Report Text: KFDY 220953Z AUTO 34008KT 10SM OVC016 07/03 A3023 RMK AO2 SLP237 T00720033 $
Loading
Personal Weather Stations






























Interactive Weather Map
Tropical Storm Tracking
New forecast layout! Learn more

10-Day Weather Forecast

Advertisements
Track Severe Weather on mobile